Terminal Aerodrome Forecast
Issued by NWS

Home | Current Version | Previous Version | Text Only | Print | Product List | Glossary On
Versions: 1 2 3 4 5 6 7 8 9 10 11 12 13 14 15 16 17 18 19 20
676
FTUS41 KRLX 101120
TAFCKB
TAF
KCKB 101120Z 1012/1112 25009G16KT 5SM -SHSN OVC015
      TEMPO 1016/1020 1SM -SHSN OVC008
     FM110200 26010G21KT P6SM OVC015=

USA.gov is the U.S. government's official web portal to all federal, state and local government web resources and services.